sensor_id;sensor_type;location;lat;lon;timestamp;temperature;humidity
59703;DHT22;45570;48.782;8.332;2022-08-24T06:07:08;18.60;99.90
59703;DHT22;45570;48.782;8.332;2022-08-24T06:14:45;18.90;99.90
59703;DHT22;45570;48.782;8.332;2022-08-24T06:17:19;19.00;99.90
59703;DHT22;45570;48.782;8.332;2022-08-24T06:19:50;19.00;99.90
59703;DHT22;45570;48.782;8.332;2022-08-24T06:22:19;19.10;99.90
59703;DHT22;45570;48.782;8.332;2022-08-24T06:24:49;19.20;99.90
59703;DHT22;45570;48.782;8.332;2022-08-24T06:27:35;19.30;99.90
59703;DHT22;45570;48.782;8.332;2022-08-24T06:30:08;19.40;99.90
59703;DHT22;45570;48.782;8.332;2022-08-24T06:33:08;19.60;99.90
59703;DHT22;45570;48.782;8.332;2022-08-24T06:35:41;19.80;99.90
59703;DHT22;45570;48.782;8.332;2022-08-24T06:38:13;19.90;99.90
59703;DHT22;45570;48.782;8.332;2022-08-24T06:40:46;20.10;99.90
59703;DHT22;45570;48.782;8.332;2022-08-24T06:43:15;20.20;99.90
59703;DHT22;45570;48.782;8.332;2022-08-24T06:45:53;20.30;99.90
59703;DHT22;45570;48.782;8.332;2022-08-24T06:48:27;20.50;99.90
59703;DHT22;45570;48.782;8.332;2022-08-24T06:50:59;20.70;99.90
59703;DHT22;45570;48.782;8.332;2022-08-24T06:53:28;20.80;99.90
59703;DHT22;45570;48.782;8.332;2022-08-24T06:55:58;20.90;99.90
59703;DHT22;45570;48.782;8.332;2022-08-24T06:58:30;21.00;99.90
59703;DHT22;45570;48.782;8.332;2022-08-24T07:01:09;21.30;99.90
59703;DHT22;45570;48.782;8.332;2022-08-24T07:03:39;21.50;99.90
59703;DHT22;45570;48.782;8.332;2022-08-24T07:06:26;21.80;99.90
59703;DHT22;45570;48.782;8.332;2022-08-24T07:08:58;22.10;99.90
59703;DHT22;45570;48.782;8.332;2022-08-24T07:11:29;22.30;98.70
59703;DHT22;45570;48.782;8.332;2022-08-24T07:14:00;22.50;99.70
59703;DHT22;45570;48.782;8.332;2022-08-24T07:16:30;22.70;98.10
59703;DHT22;45570;48.782;8.332;2022-08-24T07:19:03;22.90;97.90
59703;DHT22;45570;48.782;8.332;2022-08-24T07:21:32;23.30;97.20
59703;DHT22;45570;48.782;8.332;2022-08-24T07:24:01;23.60;96.90
59703;DHT22;45570;48.782;8.332;2022-08-24T07:26:34;23.70;95.80
59703;DHT22;45570;48.782;8.332;2022-08-24T07:29:05;24.10;94.90
59703;DHT22;45570;48.782;8.332;2022-08-24T07:31:49;24.50;94.50
59703;DHT22;45570;48.782;8.332;2022-08-24T07:34:31;25.00;94.10
59703;DHT22;45570;48.782;8.332;2022-08-24T07:37:01;25.30;92.60
59703;DHT22;45570;48.782;8.332;2022-08-24T07:39:30;25.50;91.50
59703;DHT22;45570;48.782;8.332;2022-08-24T07:41:59;25.80;89.80
59703;DHT22;45570;48.782;8.332;2022-08-24T07:44:40;26.00;89.60
59703;DHT22;45570;48.782;8.332;2022-08-24T07:47:11;26.20;87.30
59703;DHT22;45570;48.782;8.332;2022-08-24T07:50:03;26.70;88.80
59703;DHT22;45570;48.782;8.332;2022-08-24T07:52:32;27.20;83.60
59703;DHT22;45570;48.782;8.332;2022-08-24T07:55:01;27.60;79.40
59703;DHT22;45570;48.782;8.332;2022-08-24T07:57:30;27.90;79.40
59703;DHT22;45570;48.782;8.332;2022-08-24T08:00:00;28.10;78.80
59703;DHT22;45570;48.782;8.332;2022-08-24T08:02:42;28.40;77.30
59703;DHT22;45570;48.782;8.332;2022-08-24T08:05:17;29.00;72.70
59703;DHT22;45570;48.782;8.332;2022-08-24T08:07:50;29.30;71.50
59703;DHT22;45570;48.782;8.332;2022-08-24T08:10:20;29.60;70.40
59703;DHT22;45570;48.782;8.332;2022-08-24T08:12:51;29.60;68.50
59703;DHT22;45570;48.782;8.332;2022-08-24T08:15:20;29.80;69.60
59703;DHT22;45570;48.782;8.332;2022-08-24T08:18:00;30.20;67.50
59703;DHT22;45570;48.782;8.332;2022-08-24T08:20:30;30.40;67.60
59703;DHT22;45570;48.782;8.332;2022-08-24T08:22:59;30.40;66.80
59703;DHT22;45570;48.782;8.332;2022-08-24T08:25:59;30.40;64.00
59703;DHT22;45570;48.782;8.332;2022-08-24T08:28:40;29.90;65.20
59703;DHT22;45570;48.782;8.332;2022-08-24T08:31:09;30.10;63.80
59703;DHT22;45570;48.782;8.332;2022-08-24T08:33:40;30.20;64.70
59703;DHT22;45570;48.782;8.332;2022-08-24T08:36:12;30.30;64.20
59703;DHT22;45570;48.782;8.332;2022-08-24T08:38:48;30.20;66.70
59703;DHT22;45570;48.782;8.332;2022-08-24T08:41:45;30.00;67.20
59703;DHT22;45570;48.782;8.332;2022-08-24T08:44:36;29.80;66.70
59703;DHT22;45570;48.782;8.332;2022-08-24T08:47:21;29.90;68.80
59703;DHT22;45570;48.782;8.332;2022-08-24T08:50:04;30.20;68.40
59703;DHT22;45570;48.782;8.332;2022-08-24T08:53:00;30.40;65.80
59703;DHT22;45570;48.782;8.332;2022-08-24T08:55:40;30.50;66.60
59703;DHT22;45570;48.782;8.332;2022-08-24T08:58:18;30.80;65.30
59703;DHT22;45570;48.782;8.332;2022-08-24T09:01:00;31.10;63.20
59703;DHT22;45570;48.782;8.332;2022-08-24T09:03:54;31.30;62.80
59703;DHT22;45570;48.782;8.332;2022-08-24T09:06:53;31.60;61.50
59703;DHT22;45570;48.782;8.332;2022-08-24T09:12:30;31.90;58.90
59703;DHT22;45570;48.782;8.332;2022-08-24T09:15:37;32.50;56.70
59703;DHT22;45570;48.782;8.332;2022-08-24T09:18:21;32.60;56.30
59703;DHT22;45570;48.782;8.332;2022-08-24T09:21:09;32.10;57.20
59703;DHT22;45570;48.782;8.332;2022-08-24T09:23:50;32.00;57.90
59703;DHT22;45570;48.782;8.332;2022-08-24T09:26:26;32.10;56.70
59703;DHT22;45570;48.782;8.332;2022-08-24T09:29:07;32.90;56.60
59703;DHT22;45570;48.782;8.332;2022-08-24T09:31:55;33.30;54.60
59703;DHT22;45570;48.782;8.332;2022-08-24T09:34:34;33.40;49.30
59703;DHT22;45570;48.782;8.332;2022-08-24T09:37:19;33.60;49.50
59703;DHT22;45570;48.782;8.332;2022-08-24T16:21:56;31.40;41.00
59703;DHT22;45570;48.782;8.332;2022-08-24T16:24:32;31.50;41.70
59703;DHT22;45570;48.782;8.332;2022-08-24T16:27:06;31.30;41.80
59703;DHT22;45570;48.782;8.332;2022-08-24T16:29:52;31.00;41.70
59703;DHT22;45570;48.782;8.332;2022-08-24T16:32:24;30.90;41.90
59703;DHT22;45570;48.782;8.332;2022-08-24T16:35:18;30.90;42.10
59703;DHT22;45570;48.782;8.332;2022-08-24T16:37:47;30.70;43.00
59703;DHT22;45570;48.782;8.332;2022-08-24T16:40:17;30.60;42.40
59703;DHT22;45570;48.782;8.332;2022-08-24T16:42:46;30.60;41.80
59703;DHT22;45570;48.782;8.332;2022-08-24T16:45:18;30.40;43.00
59703;DHT22;45570;48.782;8.332;2022-08-24T16:47:47;30.20;43.20
59703;DHT22;45570;48.782;8.332;2022-08-24T16:50:19;30.20;43.70
59703;DHT22;45570;48.782;8.332;2022-08-24T16:52:53;30.10;43.80
59703;DHT22;45570;48.782;8.332;2022-08-24T16:55:22;30.00;43.70
59703;DHT22;45570;48.782;8.332;2022-08-24T16:57:51;30.00;43.80
59703;DHT22;45570;48.782;8.332;2022-08-24T17:00:20;30.00;44.70
59703;DHT22;45570;48.782;8.332;2022-08-24T17:02:49;29.90;44.60
59703;DHT22;45570;48.782;8.332;2022-08-24T17:05:20;30.00;44.70
59703;DHT22;45570;48.782;8.332;2022-08-24T17:07:49;29.90;45.10
59703;DHT22;45570;48.782;8.332;2022-08-24T17:10:19;29.80;44.50
59703;DHT22;45570;48.782;8.332;2022-08-24T17:12:50;29.70;44.90
59703;DHT22;45570;48.782;8.332;2022-08-24T17:15:19;29.70;44.10
59703;DHT22;45570;48.782;8.332;2022-08-24T17:17:54;29.70;44.60
59703;DHT22;45570;48.782;8.332;2022-08-24T17:20:25;29.80;44.50
59703;DHT22;45570;48.782;8.332;2022-08-24T17:22:54;29.70;44.90
59703;DHT22;45570;48.782;8.332;2022-08-24T17:25:24;29.70;45.20
59703;DHT22;45570;48.782;8.332;2022-08-24T17:27:56;29.60;45.70
59703;DHT22;45570;48.782;8.332;2022-08-24T17:30:27;29.40;45.80
59703;DHT22;45570;48.782;8.332;2022-08-24T17:32:57;29.40;46.20
59703;DHT22;45570;48.782;8.332;2022-08-24T17:35:27;29.30;45.80
59703;DHT22;45570;48.782;8.332;2022-08-24T17:37:57;29.30;47.30
59703;DHT22;45570;48.782;8.332;2022-08-24T17:40:27;29.20;46.80
59703;DHT22;45570;48.782;8.332;2022-08-24T17:42:58;29.20;46.40
59703;DHT22;45570;48.782;8.332;2022-08-24T17:45:27;29.10;48.40
59703;DHT22;45570;48.782;8.332;2022-08-24T17:47:56;28.90;49.30
59703;DHT22;45570;48.782;8.332;2022-08-24T17:50:25;28.80;49.30
59703;DHT22;45570;48.782;8.332;2022-08-24T17:52:56;28.50;50.50
59703;DHT22;45570;48.782;8.332;2022-08-24T17:55:27;28.50;49.00
59703;DHT22;45570;48.782;8.332;2022-08-24T17:57:56;28.40;49.40
59703;DHT22;45570;48.782;8.332;2022-08-24T18:00:25;28.40;49.50
59703;DHT22;45570;48.782;8.332;2022-08-24T18:02:54;28.20;49.70
59703;DHT22;45570;48.782;8.332;2022-08-24T18:05:23;28.20;49.90
59703;DHT22;45570;48.782;8.332;2022-08-24T18:07:53;28.10;49.40
59703;DHT22;45570;48.782;8.332;2022-08-24T18:10:26;28.20;49.50
59703;DHT22;45570;48.782;8.332;2022-08-24T18:12:56;28.20;49.80
59703;DHT22;45570;48.782;8.332;2022-08-24T18:15:26;28.20;50.10
59703;DHT22;45570;48.782;8.332;2022-08-24T18:18:05;28.20;50.40
59703;DHT22;45570;48.782;8.332;2022-08-24T18:20:38;28.10;51.00
59703;DHT22;45570;48.782;8.332;2022-08-24T18:23:07;28.10;50.90
59703;DHT22;45570;48.782;8.332;2022-08-24T18:25:44;28.10;51.30
59703;DHT22;45570;48.782;8.332;2022-08-24T18:28:16;28.00;51.50
59703;DHT22;45570;48.782;8.332;2022-08-24T18:30:45;27.90;52.10
59703;DHT22;45570;48.782;8.332;2022-08-24T18:33:14;27.80;52.70
59703;DHT22;45570;48.782;8.332;2022-08-24T18:35:43;27.70;52.90
59703;DHT22;45570;48.782;8.332;2022-08-24T18:38:13;27.50;53.70
59703;DHT22;45570;48.782;8.332;2022-08-24T18:40:44;27.20;54.40
59703;DHT22;45570;48.782;8.332;2022-08-24T18:43:21;27.20;56.80
59703;DHT22;45570;48.782;8.332;2022-08-24T18:45:51;26.80;55.10
59703;DHT22;45570;48.782;8.332;2022-08-24T18:48:21;26.60;56.00
59703;DHT22;45570;48.782;8.332;2022-08-24T18:50:50;26.40;56.60
59703;DHT22;45570;48.782;8.332;2022-08-24T18:53:23;26.20;57.20
59703;DHT22;45570;48.782;8.332;2022-08-24T18:58:30;26.00;57.60
59703;DHT22;45570;48.782;8.332;2022-08-24T19:00:59;25.70;58.60
59703;DHT22;45570;48.782;8.332;2022-08-24T19:03:30;25.60;58.90
59703;DHT22;45570;48.782;8.332;2022-08-24T19:06:00;25.30;59.90
59703;DHT22;45570;48.782;8.332;2022-08-24T19:08:28;25.40;62.30
59703;DHT22;45570;48.782;8.332;2022-08-24T19:10:59;24.90;61.10
59703;DHT22;45570;48.782;8.332;2022-08-24T19:13:28;24.70;62.80
59703;DHT22;45570;48.782;8.332;2022-08-24T19:15:57;24.60;63.80
59703;DHT22;45570;48.782;8.332;2022-08-24T19:18:26;24.40;64.10
59703;DHT22;45570;48.782;8.332;2022-08-24T19:20:56;24.10;64.70
59703;DHT22;45570;48.782;8.332;2022-08-24T19:23:27;23.90;65.20
59703;DHT22;45570;48.782;8.332;2022-08-24T19:26:00;23.80;65.70
59703;DHT22;45570;48.782;8.332;2022-08-24T19:28:29;23.70;67.20
59703;DHT22;45570;48.782;8.332;2022-08-24T19:31:00;23.60;67.40
59703;DHT22;45570;48.782;8.332;2022-08-24T19:33:34;23.40;69.00
59703;DHT22;45570;48.782;8.332;2022-08-24T19:36:04;23.20;70.20
59703;DHT22;45570;48.782;8.332;2022-08-24T19:38:33;23.10;70.80
59703;DHT22;45570;48.782;8.332;2022-08-24T19:41:07;22.90;71.40
59703;DHT22;45570;48.782;8.332;2022-08-24T19:43:39;22.80;72.30
59703;DHT22;45570;48.782;8.332;2022-08-24T19:46:22;22.50;72.30
59703;DHT22;45570;48.782;8.332;2022-08-24T19:52:45;22.40;73.10
59703;DHT22;45570;48.782;8.332;2022-08-24T19:55:14;22.30;75.40
59703;DHT22;45570;48.782;8.332;2022-08-24T19:57:48;22.20;75.90
59703;DHT22;45570;48.782;8.332;2022-08-24T20:00:27;22.10;76.00
59703;DHT22;45570;48.782;8.332;2022-08-24T20:02:57;22.10;77.60
59703;DHT22;45570;48.782;8.332;2022-08-24T20:05:28;22.00;77.50
59703;DHT22;45570;48.782;8.332;2022-08-24T20:07:59;21.80;78.90
59703;DHT22;45570;48.782;8.332;2022-08-24T20:10:31;21.80;80.10
59703;DHT22;45570;48.782;8.332;2022-08-24T20:13:00;21.70;80.90
59703;DHT22;45570;48.782;8.332;2022-08-24T20:15:29;21.60;81.60
59703;DHT22;45570;48.782;8.332;2022-08-24T20:17:58;21.60;83.50
59703;DHT22;45570;48.782;8.332;2022-08-24T20:20:28;21.50;84.00
59703;DHT22;45570;48.782;8.332;2022-08-24T20:22:59;21.40;86.00
59703;DHT22;45570;48.782;8.332;2022-08-24T20:25:33;21.30;86.90
59703;DHT22;45570;48.782;8.332;2022-08-24T20:28:04;21.20;88.40
59703;DHT22;45570;48.782;8.332;2022-08-24T20:30:55;21.00;90.10
59703;DHT22;45570;48.782;8.332;2022-08-24T20:33:24;21.00;91.20
59703;DHT22;45570;48.782;8.332;2022-08-24T20:35:54;21.10;91.70
59703;DHT22;45570;48.782;8.332;2022-08-24T20:38:25;20.90;93.50
59703;DHT22;45570;48.782;8.332;2022-08-24T20:40:58;20.90;95.40
59703;DHT22;45570;48.782;8.332;2022-08-24T20:43:28;21.00;96.70
59703;DHT22;45570;48.782;8.332;2022-08-24T20:45:56;21.10;98.40
59703;DHT22;45570;48.782;8.332;2022-08-24T20:48:28;21.20;99.20
